الصفحة الرئيسية
METAR-TAF:

METAR-TAF

مطار :

Hallock Municipal Airport

Hallock, مينيسوتا, الولايات المتحدة

دائرة عرض: 48-45-10N, خط طول: 096-56-35W, ارتفاع: 250 متر

مراقبة الطقس الحالي

تاريخ ووقت الإصدار 20 دقيقة قبل الساعة 04:15UTC
ريح 7 عقدة من الجنوب
درجة الحرارة -12°درجة مئوية
الرطوبة 85%
ضغط 1019 hPa
الرؤية: 16.1 كم
سماء صافية

METAR: KHCO 100415Z AUTO 18007KT 10SM CLR M12/M14 A3010 RMK AO2

زمن: 22:35 (04:35 UTC)


TAF: مفقودة

أرصاد الطقس والتوقعات من أكثر من 4000 مطار (تقارير الطقس للمطار METAR والتنبؤ بالطقس بالمطارTAF).

المحطات المتاحة هي النقط الصفراء والحمراء على الخريطة.

حرك المؤشر فوق النقطة لمعرفة اسم المحطة.

ثم انقر لمعرفة أرصاد وتوقعات الطقس.

لتغيير الخارطة: اضغط على الأزرار الخضراء مع رمز الصليب الأسود للتكبير. على الزر الأخضر مع شرطة للتصغير، أو على الأسهم الخضراء للخرائط المجاورة.


METAR-TAF: